Time;durP1;ratioP1;P1;durP2;ratioP2;P2;SDS_P1;SDS_P2;PMS_P1;PMS_P2;Temp;Humidity;BMP_temperature;BMP_pressure;BME280_temperature;BME280_humidity;BME280_pressure;Samples;Min_cycle;Max_cycle;Signal;HPM_P1;HPM_P2
2023/12/03 00:00:30;;;;;;;30.90;16.27;;;0.40;99.90;;;;;;5038786;28;19909;-71
2023/12/03 00:02:56;;;;;;;;;;;0.40;99.90;;;;;;5039696;28;20589;-71
2023/12/03 00:05:21;;;;;;;28.77;14.73;;;0.40;99.90;;;;;;5040113;28;19948;-71
2023/12/03 00:07:47;;;;;;;;;;;0.40;99.90;;;;;;5039793;28;20482;-71
2023/12/03 00:10:14;;;;;;;31.25;14.68;;;0.40;99.90;;;;;;5043143;28;19915;-71
2023/12/03 00:12:40;;;;;;;35.60;15.65;;;0.40;99.90;;;;;;5043726;28;20483;-71
2023/12/03 00:15:06;;;;;;;;;;;0.50;99.90;;;;;;5043110;28;20037;-71
2023/12/03 00:17:31;;;;;;;35.60;18.55;;;0.50;99.90;;;;;;5043919;28;19951;-71
2023/12/03 00:19:57;;;;;;;;;;;0.50;99.90;;;;;;5044300;28;20120;-71
2023/12/03 00:22:22;;;;;;;28.35;14.13;;;0.50;99.90;;;;;;5043816;28;19905;-71
2023/12/03 00:24:48;;;;;;;;;;;0.50;99.90;;;;;;5043852;28;20040;-71
2023/12/03 00:27:14;;;;;;;28.92;15.23;;;0.60;99.90;;;;;;5043548;28;20353;-71
2023/12/03 00:29:39;;;;;;;;;;;0.50;99.90;;;;;;5043936;28;20021;-71
2023/12/03 00:32:05;;;;;;;30.27;15.57;;;0.60;99.90;;;;;;5042079;28;20394;-71
2023/12/03 00:34:30;;;;;;;;;;;0.60;99.90;;;;;;5043612;28;20367;-71
2023/12/03 00:36:56;;;;;;;29.77;15.27;;;0.60;99.90;;;;;;5043140;28;20007;-71
2023/12/03 00:39:21;;;;;;;;;;;0.60;99.90;;;;;;5044002;28;20025;-71
2023/12/03 00:41:47;;;;;;;34.05;15.77;;;0.60;99.90;;;;;;5043262;28;19916;-71
2023/12/03 00:44:13;;;;;;;;;;;0.60;99.90;;;;;;5044489;28;20033;-71
2023/12/03 00:46:38;;;;;;;29.55;14.65;;;0.60;99.90;;;;;;5043344;28;20369;-71
2023/12/03 00:49:04;;;;;;;;;;;0.60;99.90;;;;;;5042210;28;20025;-71
2023/12/03 00:51:29;;;;;;;32.72;15.63;;;0.60;99.90;;;;;;5043049;28;20281;-71
2023/12/03 00:53:55;;;;;;;;;;;0.60;99.90;;;;;;5043617;28;20036;-71
2023/12/03 00:56:20;;;;;;;29.33;16.88;;;0.60;99.90;;;;;;5043248;28;19948;-71
2023/12/03 00:58:46;;;;;;;;;;;0.60;99.90;;;;;;5043501;28;20034;-70
2023/12/03 01:01:11;;;;;;;27.55;14.10;;;0.60;99.90;;;;;;5040456;28;19917;-71
2023/12/03 01:03:36;;;;;;;33.95;14.93;;;0.60;99.90;;;;;;5042981;28;20017;-71
2023/12/03 01:06:02;;;;;;;;;;;0.60;99.90;;;;;;5043230;28;20033;-71
2023/12/03 01:08:27;;;;;;;31.45;15.23;;;0.60;99.90;;;;;;5042968;28;19979;-71
2023/12/03 01:10:53;;;;;;;;;;;0.60;99.90;;;;;;5043210;28;20085;-71
2023/12/03 01:13:18;;;;;;;31.50;13.95;;;0.60;99.90;;;;;;5042586;28;20391;-71
2023/12/03 01:15:44;;;;;;;;;;;0.60;99.90;;;;;;5041629;28;20399;-71
2023/12/03 01:18:11;;;;;;;27.98;14.38;;;0.60;99.90;;;;;;5042525;28;19966;-71
2023/12/03 01:20:37;;;;;;;25.27;12.77;;;0.60;99.90;;;;;;5041905;28;20087;-71
2023/12/03 01:25:31;;;;;;;28.60;13.07;;;0.60;99.90;;;;;;5058208;28;19921;-74
2023/12/03 01:27:56;;;;;;;;;;;0.60;99.90;;;;;;5062024;28;20036;-75
2023/12/03 01:30:22;;;;;;;33.22;18.48;;;0.60;99.90;;;;;;5060974;28;19999;-75
2023/12/03 01:32:47;;;;;;;;;;;0.60;99.90;;;;;;5060669;28;20037;-75
2023/12/03 01:35:13;;;;;;;29.25;14.60;;;0.70;99.90;;;;;;5061703;28;19912;-75
2023/12/03 01:37:38;;;;;;;;;;;0.70;99.90;;;;;;5062066;28;20025;-75
2023/12/03 01:40:04;;;;;;;26.95;15.15;;;0.70;99.90;;;;;;5061645;28;19905;-75
2023/12/03 01:42:33;;;;;;;27.60;14.45;;;0.70;99.90;;;;;;5060276;28;20031;-75
2023/12/03 01:44:58;;;;;;;25.75;13.70;;;0.70;99.90;;;;;;5061208;28;20509;-75
2023/12/03 01:47:23;;;;;;;;;;;0.70;99.90;;;;;;5060774;28;20039;-75
2023/12/03 01:49:49;;;;;;;24.48;11.60;;;0.60;99.90;;;;;;5059206;28;19908;-75
2023/12/03 01:52:15;;;;;;;;;;;0.60;99.90;;;;;;5060973;28;20029;-75
2023/12/03 01:54:43;;;;;;;24.73;13.00;;;0.50;99.90;;;;;;5061242;28;19995;-75
2023/12/03 01:57:08;;;;;;;27.73;13.48;;;0.60;99.90;;;;;;5060501;28;20020;-75
2023/12/03 01:59:34;;;;;;;;;;;0.60;99.90;;;;;;5061845;28;20075;-75
2023/12/03 02:02:00;;;;;;;27.48;15.13;;;0.70;99.90;;;;;;5060387;28;19916;-75
2023/12/03 02:04:25;;;;;;;;;;;0.70;99.90;;;;;;5061183;28;20025;-75
2023/12/03 02:06:51;;;;;;;29.83;16.45;;;0.70;99.90;;;;;;5058447;28;19908;-75
2023/12/03 02:09:16;;;;;;;;;;;0.80;99.90;;;;;;5061433;28;20037;-75
2023/12/03 02:11:45;;;;;;;26.25;12.98;;;0.80;99.90;;;;;;5059674;28;19916;-75
2023/12/03 02:14:11;;;;;;;30.35;17.00;;;0.80;99.90;;;;;;5060453;28;20025;-75
2023/12/03 02:16:36;;;;;;;;;;;0.80;99.90;;;;;;5060117;28;20025;-75
2023/12/03 02:19:02;;;;;;;26.40;12.90;;;0.90;99.90;;;;;;5060537;28;19917;-75
2023/12/03 02:21:28;;;;;;;;;;;0.80;99.90;;;;;;5057972;28;20128;-75
2023/12/03 02:23:54;;;;;;;29.38;13.25;;;0.80;99.90;;;;;;5060539;28;20003;-75
2023/12/03 02:26:19;;;;;;;;;;;0.90;99.90;;;;;;5060291;28;20389;-75
2023/12/03 02:28:45;;;;;;;28.83;13.70;;;0.80;99.90;;;;;;5060612;28;19927;-75
2023/12/03 02:31:10;;;;;;;;;;;0.70;99.90;;;;;;5059500;28;20025;-75
2023/12/03 02:33:36;;;;;;;27.13;14.65;;;0.70;99.90;;;;;;5060263;28;19912;-75
2023/12/03 02:36:01;;;;;;;;;;;0.70;99.90;;;;;;5059690;28;20068;-75
2023/12/03 02:38:27;;;;;;;27.35;14.40;;;0.70;99.90;;;;;;5058928;28;19939;-75
2023/12/03 02:40:54;;;;;;;;;;;0.70;99.90;;;;;;5060041;28;20093;-75
2023/12/03 02:43:20;;;;;;;23.35;13.25;;;0.70;99.90;;;;;;5060029;28;19908;-75
2023/12/03 02:45:45;;;;;;;;;;;0.70;99.90;;;;;;5059359;28;20048;-75
2023/12/03 02:48:11;;;;;;;27.83;13.90;;;0.80;99.90;;;;;;5060336;28;19912;-75
2023/12/03 02:50:36;;;;;;;;;;;0.70;99.90;;;;;;5060835;28;20382;-75
2023/12/03 02:53:02;;;;;;;25.50;11.70;;;0.70;99.90;;;;;;5060095;28;20367;-75
2023/12/03 02:55:27;;;;;;;;;;;0.70;99.90;;;;;;5057534;28;20024;-75
2023/12/03 02:57:53;;;;;;;24.02;13.15;;;0.80;99.90;;;;;;5059528;28;20312;-75
2023/12/03 03:00:19;;;;;;;24.75;13.32;;;0.80;99.90;;;;;;5058806;28;20025;-75
2023/12/03 03:02:44;;;;;;;29.15;12.20;;;0.80;99.90;;;;;;5059787;28;20033;-75
2023/12/03 03:05:10;;;;;;;;;;;0.80;99.90;;;;;;5059506;28;20443;-75
2023/12/03 03:07:35;;;;;;;25.23;13.10;;;0.80;99.90;;;;;;5060141;28;20215;-75
2023/12/03 03:10:01;;;;;;;;;;;0.80;99.90;;;;;;5057379;28;20045;-75
2023/12/03 03:12:26;;;;;;;24.63;12.10;;;0.80;99.90;;;;;;5059675;28;19954;-75
2023/12/03 03:14:51;;;;;;;;;;;0.80;99.90;;;;;;5059321;28;20021;-75
2023/12/03 03:17:17;;;;;;;25.42;13.02;;;0.80;99.90;;;;;;5059589;28;19919;-75
2023/12/03 03:19:43;;;;;;;;;;;0.80;99.90;;;;;;5060315;28;20017;-75
2023/12/03 03:22:13;;;;;;;21.58;12.60;;;0.80;99.90;;;;;;5059622;28;19931;-75
2023/12/03 03:24:40;;;;;;;26.98;14.15;;;0.90;99.90;;;;;;5058858;28;20569;-75
2023/12/03 03:27:05;;;;;;;27.77;12.75;;;0.90;99.90;;;;;;5058902;28;20517;-75
2023/12/03 03:29:31;;;;;;;;;;;1.00;99.90;;;;;;5058356;28;20070;-75
2023/12/03 03:31:57;;;;;;;26.38;13.45;;;0.90;99.90;;;;;;5058780;28;19967;-75
2023/12/03 03:34:22;;;;;;;;;;;1.00;99.90;;;;;;5060175;28;20032;-75
2023/12/03 03:36:48;;;;;;;23.10;11.73;;;0.90;99.90;;;;;;5059253;28;19916;-75
2023/12/03 03:39:13;;;;;;;;;;;0.90;99.90;;;;;;5059583;28;20024;-75
2023/12/03 03:41:39;;;;;;;24.23;14.70;;;0.90;99.90;;;;;;5059511;28;19935;-75
2023/12/03 03:44:04;;;;;;;;;;;0.80;99.90;;;;;;5058204;28;20124;-75
2023/12/03 03:46:30;;;;;;;22.90;13.57;;;0.80;99.90;;;;;;5058211;28;19915;-75
2023/12/03 03:48:55;;;;;;;;;;;0.70;99.90;;;;;;5058740;28;20028;-75
2023/12/03 03:51:20;;;;;;;28.42;14.38;;;0.70;99.90;;;;;;5057575;28;20289;-75
2023/12/03 03:53:46;;;;;;;;;;;0.70;99.90;;;;;;5057778;28;20477;-75
2023/12/03 03:56:12;;;;;;;28.77;13.55;;;0.70;99.90;;;;;;5057201;28;19952;-75
2023/12/03 03:58:37;;;;;;;;;;;0.80;99.90;;;;;;5056465;28;20119;-75
2023/12/03 04:01:04;;;;;;;33.17;15.15;;;0.70;99.90;;;;;;5056244;28;20388;-75
2023/12/03 04:03:30;;;;;;;25.38;14.68;;;0.70;99.90;;;;;;5056949;28;20140;-75
2023/12/03 04:05:58;;;;;;;;;;;0.60;99.90;;;;;;5057362;28;20136;-75
2023/12/03 04:08:24;;;;;;;26.55;14.77;;;0.70;99.90;;;;;;5057142;28;19998;-75
2023/12/03 04:10:49;;;;;;;;;;;0.80;99.90;;;;;;5057364;28;20376;-75
2023/12/03 04:13:15;;;;;;;32.97;16.42;;;0.80;99.90;;;;;;5057289;28;20015;-75
2023/12/03 04:15:40;;;;;;;;;;;0.80;99.90;;;;;;5055250;28;20048;-75
2023/12/03 04:18:06;;;;;;;31.13;15.10;;;0.80;99.90;;;;;;5057092;28;20267;-75
2023/12/03 04:20:32;;;;;;;;;;;0.80;99.90;;;;;;5057303;28;20029;-75
2023/12/03 04:22:57;;;;;;;24.65;12.98;;;0.80;99.90;;;;;;5057126;28;19912;-75
2023/12/03 04:25:23;;;;;;;;;;;0.80;99.90;;;;;;5056464;28;20024;-75
2023/12/03 04:27:48;;;;;;;29.92;14.88;;;0.90;99.90;;;;;;5056404;28;20007;-75
2023/12/03 04:30:14;;;;;;;;;;;0.90;99.90;;;;;;5055488;28;20035;-75
2023/12/03 04:32:39;;;;;;;24.17;12.82;;;1.00;99.90;;;;;;5057553;28;20335;-75
2023/12/03 04:35:04;;;;;;;;;;;0.90;99.90;;;;;;5056938;28;20441;-75
2023/12/03 04:37:30;;;;;;;27.00;14.80;;;0.90;99.90;;;;;;5058172;28;19908;-75
2023/12/03 04:39:55;;;;;;;;;;;0.90;99.90;;;;;;5057883;28;20074;-75
2023/12/03 04:42:21;;;;;;;27.08;14.52;;;0.90;99.90;;;;;;5058591;28;19913;-75
2023/12/03 04:44:46;;;;;;;27.45;15.60;;;1.00;99.90;;;;;;5056300;28;20067;-75
2023/12/03 04:47:12;;;;;;;;;;;1.00;99.90;;;;;;5058480;28;20370;-75
2023/12/03 04:49:38;;;;;;;29.67;15.52;;;0.90;99.90;;;;;;5058815;28;19904;-75
2023/12/03 04:52:03;;;;;;;;;;;0.90;99.90;;;;;;5059302;28;20615;-75
2023/12/03 04:54:29;;;;;;;25.60;14.48;;;0.90;99.90;;;;;;5056050;28;19936;-75
2023/12/03 04:56:54;;;;;;;;;;;0.80;99.90;;;;;;5062404;28;20036;-75
2023/12/03 04:59:20;;;;;;;28.58;14.30;;;0.80;99.90;;;;;;5061911;28;19967;-75
2023/12/03 05:01:45;;;;;;;;;;;0.80;99.90;;;;;;5059464;28;20561;-75
2023/12/03 05:04:11;;;;;;;29.63;14.82;;;0.90;99.90;;;;;;5062011;28;19908;-75
2023/12/03 05:06:36;;;;;;;;;;;0.90;99.90;;;;;;5062367;28;20020;-75
2023/12/03 05:09:02;;;;;;;27.40;14.43;;;0.90;99.90;;;;;;5061847;28;19916;-75
2023/12/03 05:11:27;;;;;;;;;;;0.90;99.90;;;;;;5062276;28;20100;-75
2023/12/03 05:13:53;;;;;;;26.80;14.93;;;0.90;99.90;;;;;;5061523;28;19996;-75
2023/12/03 05:16:18;;;;;;;26.40;16.25;;;1.00;99.90;;;;;;5060576;28;20025;-75
2023/12/03 05:18:44;;;;;;;;;;;1.00;99.90;;;;;;5060546;28;20115;-75
2023/12/03 05:21:09;;;;;;;27.20;14.45;;;0.90;99.90;;;;;;5061612;28;19916;-75
2023/12/03 05:23:35;;;;;;;;;;;0.90;99.90;;;;;;5060571;28;20029;-75
2023/12/03 05:26:00;;;;;;;34.65;16.55;;;0.90;99.90;;;;;;5060851;28;20013;-75
2023/12/03 05:28:26;;;;;;;;;;;0.90;99.90;;;;;;5061551;28;20616;-75
2023/12/03 05:30:51;;;;;;;26.25;16.00;;;0.90;99.90;;;;;;5060265;28;19908;-75
2023/12/03 05:33:17;;;;;;;;;;;0.90;99.90;;;;;;5060084;28;20381;-75
2023/12/03 05:35:42;;;;;;;28.52;14.55;;;1.00;99.90;;;;;;5060989;28;19912;-75
2023/12/03 05:38:08;;;;;;;;;;;1.00;99.90;;;;;;5062091;28;20148;-75
2023/12/03 05:40:33;;;;;;;35.88;14.20;;;1.00;99.90;;;;;;5060937;28;20358;-75
2023/12/03 05:42:59;;;;;;;;;;;1.10;99.90;;;;;;5062173;28;20062;-76
2023/12/03 05:45:25;;;;;;;26.23;15.77;;;1.00;99.90;;;;;;5059444;28;20266;-75
2023/12/03 05:47:50;;;;;;;;;;;1.00;99.90;;;;;;5062042;28;20028;-75
2023/12/03 05:50:16;;;;;;;29.70;14.50;;;1.10;99.90;;;;;;5058016;28;19924;-75
2023/12/03 05:52:41;;;;;;;31.95;16.42;;;1.00;99.90;;;;;;5061239;28;20017;-75
2023/12/03 05:55:07;;;;;;;;;;;1.00;99.90;;;;;;5060763;28;20106;-75
2023/12/03 05:57:32;;;;;;;34.05;17.20;;;1.00;99.90;;;;;;5061203;28;19908;-75
2023/12/03 05:59:57;;;;;;;;;;;1.00;99.90;;;;;;5060501;28;20021;-75
2023/12/03 06:02:23;;;;;;;27.30;15.95;;;1.00;99.90;;;;;;5059988;28;19955;-75
2023/12/03 06:04:48;;;;;;;;;;;1.00;99.90;;;;;;5059674;28;20499;-75
2023/12/03 06:07:14;;;;;;;27.52;14.23;;;0.90;99.90;;;;;;5061223;28;19919;-75
2023/12/03 06:09:39;;;;;;;;;;;1.00;99.90;;;;;;5059550;28;20021;-75
2023/12/03 06:12:06;;;;;;;28.10;17.50;;;1.10;99.90;;;;;;5061772;28;20456;-75
2023/12/03 06:14:31;;;;;;;30.00;14.88;;;1.00;99.90;;;;;;5059218;28;20489;-75
2023/12/03 06:16:57;;;;;;;;;;;1.00;99.90;;;;;;5059828;28;20075;-75
2023/12/03 06:19:22;;;;;;;24.63;14.30;;;1.00;99.90;;;;;;5059500;28;19948;-75
2023/12/03 06:21:48;;;;;;;30.38;17.02;;;1.00;99.90;;;;;;5060845;28;20043;-75
2023/12/03 06:24:13;;;;;;;;;;;0.90;99.90;;;;;;5059177;28;20033;-75
2023/12/03 06:26:39;;;;;;;29.05;15.52;;;1.00;99.90;;;;;;5060925;28;19934;-75
2023/12/03 06:29:04;;;;;;;;;;;0.90;99.90;;;;;;5060435;28;20028;-75
2023/12/03 06:31:30;;;;;;;31.30;15.20;;;1.00;99.90;;;;;;5058555;28;19995;-75
2023/12/03 06:33:55;;;;;;;;;;;1.00;99.90;;;;;;5058348;28;20125;-75
2023/12/03 06:36:21;;;;;;;26.55;15.18;;;1.00;99.90;;;;;;5059366;28;19939;-75
2023/12/03 06:38:46;;;;;;;;;;;1.00;99.90;;;;;;5056165;28;20481;-75
2023/12/03 06:41:11;;;;;;;25.60;13.90;;;1.00;99.90;;;;;;5056600;28;19952;-75
2023/12/03 06:43:37;;;;;;;;;;;1.00;99.90;;;;;;5059608;28;20052;-75
2023/12/03 06:46:02;;;;;;;30.42;16.48;;;1.00;99.90;;;;;;5057432;28;19947;-75
2023/12/03 06:48:28;;;;;;;;;;;1.00;99.90;;;;;;5059114;28;20115;-75
2023/12/03 06:50:53;;;;;;;27.65;14.75;;;1.00;99.90;;;;;;5057122;28;19952;-75
2023/12/03 06:53:19;;;;;;;;;;;1.00;99.90;;;;;;5059670;28;20114;-75
2023/12/03 06:55:44;;;;;;;30.65;15.77;;;1.00;99.90;;;;;;5058801;28;19908;-76
2023/12/03 06:58:10;;;;;;;;;;;1.00;99.90;;;;;;5058043;28;20025;-76
2023/12/03 07:00:36;;;;;;;29.35;16.20;;;1.00;99.90;;;;;;5057223;28;20336;-76
2023/12/03 07:03:01;;;;;;;;;;;1.00;99.90;;;;;;5057804;28;20041;-76
2023/12/03 07:05:27;;;;;;;30.30;17.00;;;1.10;99.90;;;;;;5060015;28;19915;-76
2023/12/03 07:07:52;;;;;;;;;;;1.10;99.90;;;;;;5059599;28;20039;-76
2023/12/03 07:10:18;;;;;;;29.95;15.82;;;1.00;99.90;;;;;;5059319;28;19917;-76
2023/12/03 07:12:43;;;;;;;;;;;1.10;99.90;;;;;;5059184;28;20060;-76
2023/12/03 07:15:09;;;;;;;30.92;16.25;;;1.10;99.90;;;;;;5056648;28;20435;-76
2023/12/03 07:17:35;;;;;;;;;;;1.00;99.90;;;;;;5056159;28;20550;-75
2023/12/03 07:20:00;;;;;;;34.42;17.23;;;1.10;99.90;;;;;;5057989;28;20449;-75
2023/12/03 07:22:26;;;;;;;;;;;1.20;99.90;;;;;;5059806;28;20064;-75
2023/12/03 07:24:52;;;;;;;28.85;14.85;;;1.20;99.90;;;;;;5058251;28;19912;-76
2023/12/03 07:27:18;;;;;;;31.63;16.67;;;1.20;99.90;;;;;;5058138;28;20406;-76
2023/12/03 07:29:43;;;;;;;;;;;1.20;99.90;;;;;;5057764;28;20025;-76
2023/12/03 07:32:09;;;;;;;30.50;18.20;;;1.20;99.90;;;;;;5057918;28;20002;-77
2023/12/03 07:34:34;;;;;;;;;;;1.20;99.90;;;;;;5057555;28;20090;-77
2023/12/03 07:37:00;;;;;;;31.00;16.90;;;1.20;99.90;;;;;;5058660;28;19915;-75
2023/12/03 07:39:25;;;;;;;;;;;1.20;99.90;;;;;;5057281;28;20043;-75
2023/12/03 07:41:52;;;;;;;29.52;14.88;;;1.10;99.90;;;;;;5056802;28;19912;-72
2023/12/03 07:44:18;;;;;;;34.38;20.15;;;1.20;99.90;;;;;;5059279;28;20053;-70
2023/12/03 07:46:43;;;;;;;;;;;1.20;99.90;;;;;;5052045;28;20084;-72
2023/12/03 07:49:09;;;;;;;32.72;18.55;;;1.80;99.90;;;;;;5054993;28;19918;-72
2023/12/03 07:51:34;;;;;;;;;;;1.70;99.90;;;;;;5058604;28;20031;-72
2023/12/03 07:54:00;;;;;;;31.00;15.98;;;1.60;99.90;;;;;;5058528;28;19940;-72
2023/12/03 07:56:36;;;;;;;29.77;16.50;;;1.50;99.90;;;;;;5057626;28;20393;-72
2023/12/03 07:59:02;;;;;;;29.50;16.40;;;1.40;99.90;;;;;;5056438;28;20052;-72
2023/12/03 08:01:28;;;;;;;34.55;17.60;;;1.30;99.90;;;;;;5053492;28;20131;-71
2023/12/03 08:03:53;;;;;;;;;;;1.30;99.90;;;;;;5029434;28;20025;-71
2023/12/03 08:06:19;;;;;;;30.63;16.23;;;1.30;99.90;;;;;;5054552;28;19911;-71
2023/12/03 08:08:44;;;;;;;;;;;1.30;99.90;;;;;;5053641;28;20068;-71
2023/12/03 08:11:10;;;;;;;34.42;15.90;;;1.30;99.90;;;;;;5055904;28;19939;-71
2023/12/03 08:13:35;;;;;;;;;;;1.20;99.90;;;;;;5054032;28;20078;-71
2023/12/03 08:16:03;;;;;;;31.83;16.65;;;1.30;99.90;;;;;;5053957;28;19912;-71
2023/12/03 08:18:30;;;;;;;28.80;18.08;;;1.30;99.90;;;;;;5054362;28;20033;-71
2023/12/03 08:20:55;;;;;;;34.20;18.20;;;1.30;99.90;;;;;;5054788;28;20029;-71
2023/12/03 08:23:21;;;;;;;;;;;1.20;99.90;;;;;;5056385;28;20028;-71
2023/12/03 08:25:46;;;;;;;33.80;18.02;;;1.20;99.90;;;;;;5056579;28;19930;-71
2023/12/03 08:28:12;;;;;;;;;;;1.30;99.90;;;;;;5056502;28;20061;-71
2023/12/03 08:30:38;;;;;;;39.47;22.75;;;1.30;99.90;;;;;;5057898;28;20271;-71
2023/12/03 08:33:03;;;;;;;36.08;19.63;;;1.30;99.90;;;;;;5057433;28;20108;-71
2023/12/03 08:35:31;;;;;;;;;;;1.40;99.90;;;;;;5057733;28;20116;-71
2023/12/03 08:37:57;;;;;;;36.88;19.38;;;1.40;99.90;;;;;;5054377;28;19909;-71
2023/12/03 08:40:22;;;;;;;;;;;1.40;99.90;;;;;;5061180;28;20410;-71
2023/12/03 08:42:48;;;;;;;34.30;18.48;;;1.40;99.90;;;;;;5056135;28;20011;-71
2023/12/03 08:45:13;;;;;;;34.38;19.40;;;1.40;99.90;;;;;;5057800;28;20028;-71
2023/12/03 08:47:39;;;;;;;;;;;1.40;99.90;;;;;;5058080;28;20040;-71
2023/12/03 08:50:05;;;;;;;42.17;22.45;;;1.40;99.90;;;;;;5058511;28;19909;-72
2023/12/03 08:52:31;;;;;;;39.78;19.90;;;1.50;99.90;;;;;;5059543;28;20028;-71
2023/12/03 08:54:57;;;;;;;;;;;1.50;99.90;;;;;;5057735;28;20020;-71
2023/12/03 08:57:22;;;;;;;35.90;20.08;;;1.50;99.90;;;;;;5060265;28;20289;-71
2023/12/03 08:59:49;;;;;;;;;;;1.50;99.90;;;;;;5057307;28;20486;-72
2023/12/03 09:02:16;;;;;;;33.15;18.13;;;1.50;99.90;;;;;;5061042;28;20322;-71
2023/12/03 09:04:41;;;;;;;40.70;20.40;;;1.60;99.90;;;;;;5053434;28;20111;-70
2023/12/03 09:07:07;;;;;;;;;;;1.60;99.90;;;;;;5060355;28;20116;-70
2023/12/03 09:09:32;;;;;;;32.88;19.02;;;1.60;99.90;;;;;;5060389;28;19991;-70
2023/12/03 09:11:58;;;;;;;;;;;1.70;99.90;;;;;;5059176;28;20016;-70
2023/12/03 09:14:25;;;;;;;42.42;20.30;;;1.70;99.90;;;;;;5059991;28;19920;-70
2023/12/03 09:16:51;;;;;;;39.08;21.63;;;1.80;99.90;;;;;;5057951;28;20032;-71
2023/12/03 09:19:16;;;;;;;;;;;1.80;99.90;;;;;;5060115;28;20029;-70
2023/12/03 09:21:42;;;;;;;36.97;21.27;;;1.80;99.90;;;;;;5056024;28;20393;-70
2023/12/03 09:24:07;;;;;;;;;;;1.80;99.90;;;;;;5056317;28;20462;-70
2023/12/03 09:26:33;;;;;;;37.30;19.80;;;1.80;99.90;;;;;;5057218;28;19908;-70
2023/12/03 09:28:58;;;;;;;;;;;1.90;99.90;;;;;;5057452;28;20035;-70
2023/12/03 09:31:24;;;;;;;41.05;21.45;;;1.80;99.90;;;;;;5058850;28;19920;-70
2023/12/03 09:33:49;;;;;;;;;;;1.80;99.90;;;;;;5059617;28;20164;-70
2023/12/03 09:36:15;;;;;;;43.08;21.02;;;1.80;99.90;;;;;;5057145;28;19916;-70
2023/12/03 09:38:40;;;;;;;;;;;1.90;99.90;;;;;;5054831;28;20477;-71
2023/12/03 09:41:08;;;;;;;39.80;22.00;;;1.90;99.90;;;;;;5058814;28;20381;-71
2023/12/03 09:43:37;;;;;;;44.50;20.67;;;1.90;99.90;;;;;;5058998;28;20577;-71
2023/12/03 09:46:10;;;;;;;48.35;24.42;;;1.90;99.90;;;;;;5057689;28;20037;-71
2023/12/03 09:48:39;;;;;;;51.83;26.90;;;1.90;99.90;;;;;;5053734;28;20098;-71
2023/12/03 09:51:05;;;;;;;39.33;21.48;;;2.00;99.90;;;;;;5056215;28;20062;-71
2023/12/03 09:53:35;;;;;;;47.88;25.50;;;2.00;99.90;;;;;;5056626;28;20032;-71
2023/12/03 09:56:01;;;;;;;51.58;25.73;;;1.90;99.90;;;;;;5055600;28;20029;-71
2023/12/03 09:58:27;;;;;;;46.40;24.75;;;1.90;99.90;;;;;;5049354;28;20389;-70
2023/12/03 10:00:54;;;;;;;;;;;1.80;99.90;;;;;;5055473;28;20037;-70
2023/12/03 10:03:19;;;;;;;40.75;21.67;;;1.80;99.90;;;;;;5055258;28;20383;-71
2023/12/03 10:05:45;;;;;;;;;;;1.80;99.90;;;;;;5052603;28;20028;-70
2023/12/03 10:08:12;;;;;;;44.08;20.80;;;1.80;99.90;;;;;;5059346;28;20446;-71
2023/12/03 10:10:41;;;;;;;43.60;22.42;;;1.80;99.90;;;;;;5058762;28;20102;-71
2023/12/03 10:13:09;;;;;;;46.15;24.27;;;1.90;99.90;;;;;;5057568;28;20012;-70
2023/12/03 10:15:34;;;;;;;52.05;23.90;;;1.90;99.90;;;;;;5053303;28;20053;-70
2023/12/03 10:18:00;;;;;;;;;;;1.90;99.90;;;;;;5056759;28;20110;-71
2023/12/03 10:20:27;;;;;;;46.40;22.90;;;1.80;99.90;;;;;;5057589;28;19940;-70
2023/12/03 10:22:57;;;;;;;47.63;25.05;;;1.80;99.90;;;;;;5047324;28;20029;-71
2023/12/03 10:25:31;;;;;;;43.53;22.15;;;1.80;99.90;;;;;;5055305;28;20060;-70
2023/12/03 10:27:57;;;;;;;45.50;24.90;;;1.90;99.90;;;;;;5054512;28;20033;-70
2023/12/03 10:30:23;;;;;;;43.72;24.13;;;1.90;99.90;;;;;;5056630;28;20405;-69
2023/12/03 10:32:49;;;;;;;;;;;1.90;99.90;;;;;;5055738;28;20028;-70
2023/12/03 10:35:14;;;;;;;39.40;23.17;;;1.90;99.90;;;;;;5055065;28;20281;-70
2023/12/03 10:37:40;;;;;;;;;;;2.00;99.90;;;;;;5058281;28;20028;-70
2023/12/03 10:40:07;;;;;;;44.33;21.60;;;2.00;99.90;;;;;;5056569;28;20459;-71
2023/12/03 10:42:39;;;;;;;44.75;21.63;;;2.10;99.90;;;;;;5056492;28;20117;-70
2023/12/03 10:45:12;;;;;;;49.35;22.30;;;2.10;99.90;;;;;;5056691;28;20134;-71
2023/12/03 10:47:38;;;;;;;51.58;26.30;;;2.10;99.90;;;;;;5055748;28;20032;-70
2023/12/03 10:50:05;;;;;;;;;;;2.20;99.90;;;;;;5053024;28;20029;-70
2023/12/03 10:52:32;;;;;;;44.03;21.98;;;2.20;99.90;;;;;;5054584;28;19944;-70
2023/12/03 10:54:58;;;;;;;47.80;26.88;;;2.30;99.90;;;;;;5057612;28;20044;-69
2023/12/03 10:57:26;;;;;;;;;;;2.30;99.90;;;;;;5057393;28;20024;-69
2023/12/03 10:59:59;;;;;;;45.13;23.52;;;2.30;99.90;;;;;;5055063;28;19915;-70
2023/12/03 11:02:29;;;;;;;46.95;24.17;;;2.30;99.90;;;;;;5054508;28;20110;-70
2023/12/03 11:05:01;;;;;;;43.92;25.35;;;2.30;99.90;;;;;;5057929;28;20024;-70
2023/12/03 11:07:30;;;;;;;54.28;27.77;;;2.20;99.90;;;;;;5054145;28;20034;-70
2023/12/03 11:09:57;;;;;;;46.10;25.27;;;2.20;99.90;;;;;;5051042;28;20076;-70
2023/12/03 11:12:23;;;;;;;51.10;24.40;;;2.20;99.90;;;;;;5054375;28;20032;-70
2023/12/03 11:14:49;;;;;;;52.65;26.30;;;2.20;99.90;;;;;;5054868;28;20118;-70
2023/12/03 11:17:40;;;;;;;56.50;27.65;;;2.20;99.90;;;;;;5057038;28;20482;-70
2023/12/03 11:20:10;;;;;;;55.10;27.73;;;2.20;99.90;;;;;;5054022;28;20029;-70
2023/12/03 11:22:50;;;;;;;48.25;25.98;;;2.20;99.90;;;;;;5055921;28;20049;-70
2023/12/03 11:25:23;;;;;;;47.80;25.13;;;2.30;99.90;;;;;;5058480;28;20032;-70
2023/12/03 11:27:51;;;;;;;54.42;24.70;;;2.30;99.90;;;;;;5057108;28;20036;-70
2023/12/03 11:30:36;;;;;;;51.22;26.73;;;2.30;99.90;;;;;;5055034;28;20025;-70
2023/12/03 11:33:05;;;;;;;56.85;25.95;;;2.30;99.90;;;;;;5056637;28;20037;-70
2023/12/03 11:35:31;;;;;;;44.72;25.10;;;2.40;99.90;;;;;;5057558;28;20029;-70
2023/12/03 11:37:56;;;;;;;;;;;2.40;99.90;;;;;;5058307;28;20032;-70
2023/12/03 11:40:33;;;;;;;47.00;24.10;;;2.30;99.90;;;;;;5055948;28;20362;-70
2023/12/03 11:42:59;;;;;;;48.17;25.70;;;2.30;99.90;;;;;;5054749;28;20029;-70
2023/12/03 11:45:25;;;;;;;;;;;2.30;99.90;;;;;;5055989;28;20039;-70
2023/12/03 11:48:05;;;;;;;41.43;21.43;;;2.30;99.90;;;;;;5055764;28;19912;-70
2023/12/03 11:50:34;;;;;;;43.35;19.73;;;2.30;99.90;;;;;;5056162;28;20036;-70
2023/12/03 11:52:59;;;;;;;38.83;20.35;;;2.30;99.90;;;;;;5057559;28;20429;-70
2023/12/03 11:55:25;;;;;;;;;;;2.30;99.90;;;;;;5057099;28;20025;-70
2023/12/03 11:57:51;;;;;;;35.88;22.50;;;2.40;99.90;;;;;;5058246;28;20383;-70
2023/12/03 12:00:17;;;;;;;;;;;2.40;99.90;;;;;;5058221;28;20025;-69
2023/12/03 12:02:43;;;;;;;41.00;21.80;;;2.40;99.90;;;;;;5056229;28;20440;-70
2023/12/03 12:05:09;;;;;;;;;;;2.50;99.90;;;;;;5058387;28;20029;-73
2023/12/03 12:07:35;;;;;;;42.53;20.38;;;2.50;99.90;;;;;;5058892;28;19995;-72
2023/12/03 12:10:00;;;;;;;;;;;2.50;99.90;;;;;;5062336;28;20029;-72
2023/12/03 12:12:26;;;;;;;46.95;21.48;;;2.50;99.90;;;;;;5061617;28;20446;-74
2023/12/03 12:14:51;;;;;;;50.40;24.88;;;2.50;99.90;;;;;;5062062;28;20020;-74
2023/12/03 12:17:17;;;;;;;;;;;2.50;99.90;;;;;;5060937;28;20033;-73
2023/12/03 12:19:49;;;;;;;49.00;21.90;;;2.60;99.90;;;;;;5061012;28;20282;-76
2023/12/03 12:22:16;;;;;;;48.53;22.90;;;3.30;99.90;;;;;;5058081;28;20048;-77
2023/12/03 12:24:44;;;;;;;55.22;25.38;;;3.40;99.90;;;;;;5060597;28;20075;-76
2023/12/03 12:27:10;;;;;;;37.50;21.08;;;3.20;99.90;;;;;;5062492;28;20020;-81
2023/12/03 12:29:35;;;;;;;;;;;3.00;99.90;;;;;;5064868;28;20504;-79
2023/12/03 12:32:01;;;;;;;42.22;20.52;;;2.90;99.90;;;;;;5056758;28;19916;-77
2023/12/03 12:34:28;;;;;;;;;;;2.80;99.90;;;;;;5062353;28;20037;-78
2023/12/03 12:37:07;;;;;;;42.70;24.02;;;2.80;99.90;;;;;;5063825;28;19909;-79
2023/12/03 12:39:33;;;;;;;40.78;21.77;;;2.90;99.90;;;;;;5059995;28;20050;-78
2023/12/03 12:41:59;;;;;;;48.03;23.33;;;2.90;99.90;;;;;;5061390;28;20024;-78
2023/12/03 12:44:41;;;;;;;51.45;25.35;;;2.90;99.90;;;;;;5061243;28;20032;-78
2023/12/03 12:47:08;;;;;;;42.70;23.95;;;2.80;99.90;;;;;;5054990;28;20033;-77
2023/12/03 12:49:33;;;;;;;46.20;25.10;;;2.80;99.90;;;;;;5061059;28;20028;-77
2023/12/03 12:52:08;;;;;;;;;;;2.80;99.90;;;;;;5062422;28;20021;-77
2023/12/03 12:54:46;;;;;;;52.47;26.50;;;2.80;99.90;;;;;;5061873;28;19927;-77
2023/12/03 12:57:13;;;;;;;42.28;22.50;;;2.80;99.90;;;;;;5057487;28;20423;-80
2023/12/03 12:59:39;;;;;;;51.90;22.42;;;2.80;99.90;;;;;;5062385;28;20031;-81
2023/12/03 13:02:04;;;;;;;;;;;2.80;99.90;;;;;;5058625;28;20115;-78
2023/12/03 13:04:30;;;;;;;48.53;23.38;;;2.70;99.90;;;;;;5059239;28;19908;-77
2023/12/03 13:06:55;;;;;;;45.60;20.75;;;2.80;99.90;;;;;;5057122;28;20080;-82
2023/12/03 13:09:21;;;;;;;;;;;2.80;99.90;;;;;;5061697;28;20024;-76
2023/12/03 13:11:46;;;;;;;43.75;20.85;;;2.80;99.90;;;;;;5057252;28;19964;-78
2023/12/03 13:14:12;;;;;;;;;;;2.70;99.90;;;;;;5062665;28;20025;-78